Terminal Aerodrome Forecast
Issued by NWS Louisville, KY

Home | Current Version | Previous Version | Text Only | Print | Product List | Glossary On
Versions: 1 2 3 4 5 6 7 8 9 10 11 12 13 14 15 16 17
000
FTUS43 KLMK 171958 AAA
TAFBWG
TAF AMD
KBWG 171958Z 1720/1818 VRB04KT 5SM -RA BR BKN005 OVC025
     FM172100 20004KT 6SM BR OVC008
     FM180300 VRB04KT P6SM OVC010
     FM180800 VRB03KT 6SM BR SCT030
     FM181600 12006KT P6SM SCT200=

USA.gov is the U.S. government's official web portal to all federal, state and local government web resources and services.